Date,TemperatureHighF,TemperatureAvgF,TemperatureLowF,DewpointHighF,DewpointAvgF,DewpointLowF,HumidityHigh,HumidityAvg,HumidityLow,PressureMaxIn,PressureMinIn,WindSpeedMaxMPH,WindSpeedAvgMPH,GustSpeedMaxMPH,PrecipitationSumIn
2013-1-1,33.4,30.6,27.1,22.0,20.7,19.0,78,67,59,29.75,29.18,0,0,0,0.00
2013-1-2,27.7,22.3,18.7,20.0,18.3,16.0,89,84,72,29.59,29.20,0,0,0,0.00
2013-1-3,27.4,24.9,20.6,19.0,16.5,14.0,79,70,65,29.69,29.59,0,0,0,0.00
2013-1-4,24.3,18.3,12.8,14.0,11.3,8.0,84,74,64,29.87,29.66,0,0,0,0.00
2013-1-5,17.7,14.6,11.7,13.0,10.8,8.0,92,84,78,29.87,29.44,0,0,0,0.00
2013-1-6,18.6,13.3,8.2,12.0,9.4,6.0,91,84,75,29.44,29.29,0,0,0,0.00
2013-1-7,13.0,7.5,0.9,10.0,4.9,-2.0,91,89,86,29.56,29.21,0,0,0,0.00
2013-1-8,1.9,-3.0,-6.6,-1.0,-6.1,-10.0,89,87,85,30.18,29.57,0,0,0,0.00
2013-1-9,1.1,-2.0,-4.5,-2.0,-5.0,-8.0,88,87,86,30.24,29.97,0,0,0,0.00
2013-1-10,11.1,7.4,0.3,9.0,5.2,-2.0,91,90,88,30.13,29.95,0,0,0,0.00
2013-1-11,14.1,11.5,6.3,12.0,9.6,4.0,92,92,90,30.24,29.91,0,0,0,0.00
2013-1-12,26.2,18.4,12.0,24.0,16.5,10.0,93,92,92,30.23,29.75,0,0,0,0.00
2013-1-13,32.6,29.7,26.7,29.0,26.5,25.0,92,88,85,29.77,29.55,0,0,0,0.00
2013-1-14,33.9,31.7,27.0,30.0,28.2,25.0,93,86,85,29.86,29.26,0,0,0,0.15
2013-1-15,25.9,13.2,8.8,24.0,11.1,7.0,93,91,88,30.27,29.88,0,0,0,0.00
2013-1-16,11.4,7.2,1.8,10.0,5.3,0.0,92,91,90,30.27,29.89,0,0,0,0.00
2013-1-17,11.2,1.0,11.1,9.0,-90.4,-99.9,92,8,92,30.13,29.84,0,-912,0,0.00
2013-1-18,-200.0,0.0,200.0,-99.9,-99.9,-99.9,0,0,100,30.38,30.14,0,-999,0,0.00
2013-1-19,-200.0,0.0,200.0,-99.9,-99.9,-99.9,0,0,100,30.39,30.06,0,-999,0,0.00
2013-1-20,-200.0,0.0,200.0,-99.9,-99.9,-99.9,0,0,100,30.06,29.99,0,-999,0,0.00
2013-1-21,-200.0,0.0,200.0,-99.9,-99.9,-99.9,0,0,100,30.11,29.99,0,-999,0,0.00
2013-1-22,-200.0,0.0,200.0,-99.9,-99.9,-99.9,0,0,100,29.99,29.71,0,-999,0,0.00
2013-1-23,-200.0,0.0,200.0,-99.9,-99.9,-99.9,0,0,100,29.71,29.59,0,-999,0,0.00
2013-1-24,-200.0,0.0,200.0,-99.9,-99.9,-99.9,0,0,100,29.80,29.64,0,-999,0,0.00
2013-1-25,-200.0,0.0,200.0,-99.9,-99.9,-99.9,0,0,100,29.96,29.80,0,-999,0,0.00
2013-1-26,-24.0,-1.3,-24.9,-29.0,-96.2,-99.9,78,4,77,30.16,29.97,0,-946,0,0.00
2013-1-27,-200.0,0.0,200.0,-99.9,-99.9,-99.9,0,0,100,30.54,30.11,0,-999,0,0.00
2013-1-28,-200.0,0.0,200.0,-99.9,-99.9,-99.9,0,0,100,30.56,30.02,0,-999,0,0.00
2013-1-29,-200.0,0.0,200.0,-99.9,-99.9,-99.9,0,0,100,30.02,29.86,0,-999,0,0.00
2013-1-30,-200.0,0.0,200.0,-99.9,-99.9,-99.9,0,0,100,29.90,29.65,0,-999,0,0.00
2013-1-31,-200.0,0.0,200.0,-99.9,-99.9,-99.9,0,0,100,30.07,29.68,0,-999,0,0.00
2013-2-1,-200.0,0.0,200.0,-99.9,-99.9,-99.9,0,0,100,30.13,29.86,0,-999,0,0.00
2013-2-2,-200.0,0.0,200.0,-99.9,-99.9,-99.9,0,0,100,29.86,29.50,0,-999,0,0.00
2013-2-3,-200.0,0.0,200.0,-99.9,-99.9,-99.9,0,0,100,29.50,29.30,0,-999,0,0.00
2013-2-4,-200.0,0.0,200.0,-99.9,-99.9,-99.9,0,0,100,29.63,29.45,0,-999,0,0.00
2013-2-5,-200.0,0.0,200.0,-99.9,-99.9,-99.9,0,0,100,29.62,29.57,0,-999,0,0.00
2013-2-6,-200.0,0.0,200.0,-99.9,-99.9,-99.9,0,0,100,29.69,29.56,0,-999,0,0.00
2013-2-7,-200.0,0.0,200.0,-99.9,-99.9,-99.9,0,0,100,29.66,29.27,0,-999,0,0.00
2013-2-8,-200.0,0.0,200.0,-99.9,-99.9,-99.9,0,0,100,29.79,29.30,0,-999,0,0.00
2013-2-9,-200.0,0.0,200.0,-99.9,-99.9,-99.9,0,0,100,29.78,29.01,0,-999,0,0.00
2013-2-10,-200.0,0.0,200.0,-99.9,-99.9,-99.9,0,0,100,29.46,28.94,0,-999,0,0.00
2013-2-11,-200.0,0.0,200.0,-99.9,-99.9,-99.9,0,0,100,29.69,29.47,0,-999,0,0.00
2013-2-12,-200.0,0.0,200.0,-99.9,-99.9,-99.9,0,0,100,29.76,29.69,0,-999,0,0.00
2013-2-13,-200.0,0.0,200.0,-99.9,-99.9,-99.9,0,0,100,29.76,29.72,0,-999,0,0.00
2013-2-14,-200.0,0.0,200.0,-99.9,-99.9,-99.9,0,0,100,29.73,29.32,0,-999,0,0.00
2013-2-15,-200.0,0.0,200.0,-99.9,-99.9,-99.9,0,0,100,30.01,29.41,0,-999,0,0.00
2013-2-16,-200.0,0.0,200.0,-99.9,-99.9,-99.9,0,0,100,30.07,29.85,0,-999,0,0.00
2013-2-17,-200.0,0.0,200.0,-99.9,-99.9,-99.9,0,0,100,30.11,29.79,0,-999,0,0.00
2013-2-18,-200.0,0.0,200.0,-99.9,-99.9,-99.9,0,0,100,30.21,30.09,0,-999,0,0.00
2013-2-19,-200.0,0.0,200.0,-99.9,-99.9,-99.9,0,0,100,30.09,29.55,0,-999,0,0.00
2013-2-20,-200.0,0.0,200.0,-99.9,-99.9,-99.9,0,0,100,29.55,29.35,0,-999,0,0.00
2013-2-21,-200.0,0.0,200.0,-99.9,-99.9,-99.9,0,0,100,29.40,29.30,0,-999,0,0.00
2013-2-22,-200.0,0.0,200.0,-99.9,-99.9,-99.9,0,0,100,29.58,29.34,0,-999,0,0.00
2013-2-23,-200.0,0.0,200.0,-99.9,-99.9,-99.9,0,0,100,29.50,29.28,0,-999,0,0.00
2013-2-24,-200.0,0.0,200.0,-99.9,-99.9,-99.9,0,0,100,29.65,29.31,0,-999,0,0.00
2013-2-25,-200.0,0.0,200.0,-99.9,-99.9,-99.9,0,0,100,29.73,29.66,0,-999,0,0.00
2013-2-26,-200.0,0.0,200.0,-99.9,-99.9,-99.9,0,0,100,29.73,29.44,0,-999,0,0.00
2013-2-27,-200.0,0.0,200.0,-99.9,-99.9,-99.9,0,0,100,29.44,29.30,0,-999,0,0.00
2013-2-28,-200.0,0.0,200.0,-99.9,-99.9,-99.9,0,0,100,29.45,29.35,0,-999,0,0.00
2013-3-1,-200.0,0.0,200.0,-99.9,-99.9,-99.9,0,0,100,29.95,29.45,0,-999,0,0.00
2013-3-2,-200.0,0.0,200.0,-99.9,-99.9,-99.9,0,0,100,30.11,29.96,0,-999,0,0.00
2013-3-3,22.2,2.2,19.9,16.0,-87.8,-99.9,82,8,78,30.37,30.11,0,-895,0,0.00
2013-3-4,27.6,2.3,26.1,18.0,-90.0,-99.9,69,6,66,30.47,30.24,0,-915,0,0.00
2013-3-5,30.1,5.4,26.4,18.0,-77.7,-99.9,66,12,57,30.25,29.89,0,-808,0,0.00
2013-3-6,16.2,1.6,12.8,8.0,-88.5,-99.9,73,8,69,29.96,29.82,0,-893,0,0.00
2013-3-7,-200.0,0.0,200.0,-99.9,-99.9,-99.9,0,0,100,29.84,29.38,0,-999,0,0.00
2013-3-8,39.7,4.4,36.9,26.0,-85.2,-99.9,65,7,58,29.59,29.44,0,-882,0,0.04
2013-3-9,33.8,5.7,30.3,25.0,-77.9,-99.9,75,13,70,29.97,29.60,0,-822,0,0.01
2013-3-10,23.8,5.4,19.7,19.0,-71.9,-99.9,92,19,74,30.26,29.98,0,-760,0,0.00
2013-3-11,20.7,4.7,17.9,15.0,-72.6,-99.9,83,18,73,30.57,30.27,0,-758,0,0.00
2013-3-12,20.8,4.2,17.1,5.0,-77.0,-99.9,56,12,50,30.61,30.31,0,-779,0,0.00
2013-3-13,12.7,1.8,2.7,-5.0,-81.2,-99.9,52,9,42,30.34,30.19,0,-795,0,0.00
2013-3-14,14.6,3.3,9.9,-3.0,-76.3,-99.9,46,11,41,30.27,30.10,0,-749,0,0.00
2013-3-15,21.5,4.7,14.8,-3.0,-76.4,-99.9,40,9,32,30.19,29.91,0,-752,0,0.00
2013-3-16,22.3,3.2,19.9,3.0,-84.6,-99.9,45,7,43,30.14,29.95,0,-850,0,0.00
2013-3-17,12.7,2.7,9.9,1.0,-76.7,-99.9,61,14,58,30.32,30.10,0,-766,0,0.00
2013-3-18,15.5,3.5,10.4,2.0,-74.4,-99.9,61,14,55,30.17,29.97,0,-746,0,0.00
2013-3-19,14.7,3.0,9.9,0.0,-77.7,-99.9,57,12,46,30.15,29.99,0,-771,0,0.00
2013-3-20,7.8,1.6,1.9,-2.0,-74.2,-99.9,71,18,62,30.07,29.88,0,-733,0,0.00
2013-3-21,18.0,2.5,15.7,9.0,-83.8,-99.9,70,10,67,30.11,29.93,0,-850,0,0.00
2013-3-22,28.6,2.6,26.0,14.0,-89.0,-99.9,60,5,54,30.00,29.64,0,-903,0,0.00
2013-3-23,4.3,0.7,0.1,-9.0,-72.9,-99.9,63,17,53,30.11,29.66,0,-700,0,0.00
2013-3-24,10.0,1.6,6.4,3.0,-79.6,-99.9,83,14,56,30.08,29.71,0,-795,0,0.00
2013-3-25,8.0,1.5,3.6,3.0,-77.8,-99.9,81,17,73,29.77,29.57,0,-780,0,0.00
2013-3-26,2.8,0.4,-0.6,-8.0,-71.8,-99.9,65,19,55,30.20,29.72,0,-688,0,0.00
2013-3-27,7.9,1.5,3.6,-5.0,-78.4,-99.9,60,13,54,30.30,30.07,0,-768,0,0.00
2013-3-28,29.0,7.8,22.5,13.0,-68.3,-99.9,55,14,42,30.16,29.85,0,-709,0,0.05
2013-3-29,41.4,11.6,35.1,21.0,-64.1,-99.9,52,14,41,29.91,29.82,0,-698,0,0.22
2013-3-30,35.6,9.3,25.8,20.0,-66.4,-99.9,57,15,49,30.17,29.87,0,-714,0,0.05
2013-3-31,36.9,9.5,34.4,28.0,-66.4,-99.9,72,18,67,30.25,30.11,0,-736,0,0.09
2013-4-1,36.0,11.9,31.0,27.0,-57.5,-99.9,77,22,58,30.14,30.03,0,-655,0,0.02
2013-4-2,34.4,9.6,28.3,19.0,-64.6,-99.9,65,17,52,30.17,30.09,0,-699,0,0.00
2013-4-3,30.8,8.1,19.6,12.0,-67.7,-99.9,48,13,41,30.48,30.21,0,-699,0,0.00
2013-4-4,28.5,8.3,19.2,4.0,-67.2,-99.9,44,11,32,30.48,30.05,0,-678,0,0.00
2013-4-5,17.1,4.1,4.6,-3.0,-67.4,-99.9,53,16,39,30.10,29.70,0,-654,0,0.00
2013-4-6,18.4,5.1,9.2,-1.0,-67.1,-99.9,51,15,42,29.75,29.56,0,-662,0,0.00
2013-4-7,-200.0,0.0,200.0,-99.9,-99.9,-99.9,0,0,100,29.85,29.59,0,-999,0,0.00
2013-4-8,13.3,1.7,9.6,9.0,-84.1,-99.9,88,12,80,29.87,29.42,0,-853,0,0.00
2013-4-9,-200.0,0.0,200.0,-99.9,-99.9,-99.9,0,0,100,29.41,29.09,0,-999,0,0.00
2013-4-10,13.3,3.9,6.9,2.0,-61.3,-99.9,78,25,59,29.92,29.40,0,-616,0,0.00
2013-4-11,13.6,3.8,4.2,1.0,-65.0,-99.9,68,21,53,30.22,29.99,0,-648,0,0.00
2013-4-12,22.7,6.3,14.0,7.0,-66.2,-99.9,60,17,49,30.35,30.27,0,-679,0,0.12
2013-4-13,25.7,7.6,17.7,7.0,-65.7,-99.9,53,15,43,30.47,30.38,0,-674,0,0.05
2013-4-14,25.9,7.6,19.0,18.0,-63.3,-99.9,78,23,69,30.58,30.47,0,-685,0,0.01
2013-4-15,29.4,9.7,20.7,9.0,-59.6,-99.9,55,17,40,30.56,30.41,0,-626,0,0.00
2013-4-16,27.4,7.8,21.6,16.0,-65.2,-99.9,78,18,47,30.46,30.22,0,-691,0,0.00
2013-4-17,29.4,9.9,24.7,13.0,-59.9,-99.9,54,18,46,30.40,30.23,0,-638,0,0.00
2013-4-18,32.0,10.0,22.7,11.0,-61.4,-99.9,51,16,40,30.44,30.35,0,-648,0,0.00
2013-4-19,40.2,13.1,32.9,18.0,-60.4,-99.9,44,13,28,30.50,30.38,0,-645,0,0.00
2013-4-20,42.8,14.8,36.4,19.0,-57.8,-99.9,46,13,29,30.42,30.27,0,-631,0,0.00
2013-4-21,43.1,14.9,37.3,20.0,-57.7,-99.9,45,14,28,30.36,30.28,0,-635,0,0.00
2013-4-22,45.0,15.6,37.0,20.0,-56.3,-99.9,46,14,33,30.48,30.37,0,-631,0,0.00
2013-4-23,46.9,14.8,40.4,23.0,-60.3,-99.9,50,12,32,30.41,30.16,0,-666,0,0.00
2013-4-24,34.6,9.9,31.7,29.0,-62.6,-99.9,88,22,70,30.18,29.95,0,-705,0,0.00
2013-4-25,31.8,11.6,26.2,10.0,-58.7,-99.9,47,15,32,30.12,29.97,0,-614,0,0.00
2013-4-26,30.2,10.0,26.2,23.0,-57.2,-99.9,88,25,48,30.02,29.59,0,-638,0,0.00
2013-4-27,27.7,10.3,21.6,8.0,-58.9,-99.9,46,15,33,30.15,29.63,0,-604,0,0.00
2013-4-28,34.4,12.7,22.0,17.0,-54.6,-99.9,51,18,36,30.19,30.07,0,-593,0,0.00
2013-4-29,31.8,9.0,29.2,26.0,-63.4,-99.9,88,23,70,30.14,30.04,0,-705,0,0.00
2013-4-30,36.1,12.9,29.2,30.0,-49.1,-99.9,91,33,71,30.08,29.84,0,-604,0,0.16
2013-5-1,33.2,12.9,25.9,26.0,-48.2,-99.9,88,31,62,29.88,29.66,0,-578,0,0.04
2013-5-2,36.4,13.8,29.8,23.0,-50.4,-99.9,67,24,54,29.91,29.73,0,-591,0,0.00
2013-5-3,36.7,12.8,27.9,30.0,-50.3,-99.9,92,32,76,29.95,29.81,0,-614,0,0.00
2013-5-4,35.1,13.1,26.9,24.0,-48.5,-99.9,84,30,53,30.00,29.86,0,-578,0,0.00
2013-5-5,38.0,15.4,33.9,17.0,-51.8,-99.9,45,17,37,30.14,30.01,0,-578,0,0.00
2013-5-6,42.0,15.9,36.7,22.0,-53.8,-99.9,49,15,32,30.19,30.08,0,-604,0,0.00
2013-5-7,44.1,18.4,39.6,23.0,-47.8,-99.9,50,18,33,30.26,30.19,0,-562,0,0.00
2013-5-8,47.7,18.9,43.1,24.0,-50.0,-99.9,47,16,33,30.31,30.24,0,-589,0,0.00
2013-5-9,55.1,21.0,48.2,26.0,-50.3,-99.9,38,13,29,30.36,30.18,0,-599,0,0.00
2013-5-10,55.8,21.5,49.5,29.0,-49.2,-99.9,40,14,31,30.21,29.93,0,-597,0,0.00
2013-5-11,57.3,22.0,47.2,30.0,-47.3,-99.9,50,16,33,29.93,29.65,0,-589,0,0.00
2013-5-12,50.5,15.7,44.0,33.0,-57.9,-99.9,64,16,41,29.66,29.44,0,-673,0,0.00
2013-5-13,32.0,12.0,27.4,13.0,-56.7,-99.9,46,17,40,29.68,29.51,0,-606,0,0.00
2013-5-14,39.8,15.7,34.8,19.0,-51.9,-99.9,46,17,40,29.68,29.60,0,-589,0,0.00
2013-5-15,46.5,15.6,42.5,22.0,-58.2,-99.9,41,13,35,29.70,29.61,0,-653,0,0.00
2013-5-16,50.4,16.5,44.3,27.0,-56.4,-99.9,50,15,34,29.66,29.39,0,-652,0,0.00
2013-5-17,-200.0,0.0,200.0,-99.9,-99.9,-99.9,0,0,100,29.62,29.37,0,-999,0,0.00
2013-5-18,31.7,11.8,23.9,10.0,-56.1,-99.9,51,17,36,30.15,29.63,0,-593,0,0.01
2013-5-19,43.4,16.5,37.9,19.0,-53.9,-99.9,42,14,31,30.55,30.22,0,-599,0,0.00
2013-5-20,52.1,19.7,47.0,22.0,-53.5,-99.9,34,11,25,30.63,30.39,0,-610,0,0.00
2013-5-21,59.5,22.8,53.7,23.0,-52.0,-99.9,29,10,21,30.44,30.11,0,-604,0,0.00
2013-5-22,65.2,24.3,54.5,31.0,-49.4,-99.9,38,11,24,30.12,29.93,0,-608,0,0.00
2013-5-23,60.8,20.6,53.0,48.0,-50.5,-99.9,80,18,41,30.09,29.98,0,-645,0,0.00
2013-5-24,68.1,25.6,62.0,42.0,-45.9,-99.9,44,14,33,30.12,29.95,0,-610,0,0.00
2013-5-25,74.2,28.1,66.1,38.0,-48.1,-99.9,30,9,21,29.95,29.77,0,-610,0,0.00
2013-5-26,76.8,25.8,72.8,39.0,-52.9,-99.9,28,9,23,29.85,29.73,0,-656,0,0.00
2013-5-27,79.3,27.1,71.0,45.0,-49.4,-99.9,36,11,27,29.86,29.72,0,-645,0,0.00
2013-5-28,80.7,27.4,71.0,44.0,-49.3,-99.9,35,10,25,29.76,29.64,0,-642,0,0.00
2013-5-29,80.1,26.7,72.2,40.0,-52.9,-99.9,31,8,20,29.69,29.61,0,-656,0,0.00
2013-5-30,82.0,24.1,73.0,45.0,-57.5,-99.9,35,7,20,29.83,29.67,0,-694,0,0.00
2013-5-31,80.5,26.0,73.5,44.0,-54.2,-99.9,30,8,17,29.95,29.83,0,-666,0,0.00
2013-6-1,76.6,25.1,66.8,44.0,-51.4,-99.9,37,11,29,30.07,29.94,0,-656,0,0.00
2013-6-2,78.7,25.2,68.1,45.0,-51.9,-99.9,36,11,30,30.05,29.83,0,-662,0,0.00
2013-6-3,61.8,17.7,56.4,50.0,-55.7,-99.9,76,20,60,29.89,29.64,0,-701,0,0.00
2013-6-4,-200.0,0.0,200.0,-99.9,-99.9,-99.9,0,0,100,29.64,29.53,0,-999,0,0.00
2013-6-5,-200.0,0.0,200.0,-99.9,-99.9,-99.9,0,0,100,29.80,29.59,0,-999,0,0.00
2013-6-7,64.3,29.9,60.8,46.0,-30.0,-99.9,59,26,51,29.91,29.85,0,-520,0,0.00
2013-6-8,69.1,20.4,60.2,53.0,-54.7,-99.9,73,15,42,30.10,29.91,0,-691,0,0.02
2013-6-9,64.6,13.6,58.4,47.0,-67.8,-99.9,63,12,47,30.20,30.10,0,-778,0,0.00
2013-6-10,58.0,15.8,53.0,44.0,-59.3,-99.9,68,18,57,30.25,30.21,0,-715,0,0.00
2013-6-11,63.8,17.2,52.9,50.0,-57.0,-99.9,86,19,45,30.26,30.11,0,-706,0,0.09
2013-6-12,70.4,17.8,66.4,39.0,-64.2,-99.9,35,8,28,30.13,30.03,0,-739,0,0.00
2013-6-13,75.5,25.3,70.1,39.0,-53.2,-99.9,31,9,23,30.13,30.03,0,-656,0,0.00
2013-6-14,81.0,25.6,74.8,44.0,-54.0,-99.9,29,9,23,30.16,30.08,0,-673,0,0.00
2013-6-15,82.9,24.2,78.1,52.0,-54.8,-99.9,37,10,31,30.24,30.12,0,-697,0,0.00
2013-6-16,84.6,28.4,78.8,59.0,-46.2,-99.9,48,14,37,30.24,30.10,0,-656,0,0.00
2013-6-17,84.8,28.0,75.5,46.0,-51.5,-99.9,29,8,20,30.20,30.07,0,-655,0,0.00
2013-6-18,85.0,27.9,78.1,49.0,-50.6,-99.9,35,10,25,30.11,29.84,0,-662,0,0.00
2013-6-19,84.6,31.1,77.7,48.0,-44.7,-99.9,34,11,25,29.90,29.76,0,-620,0,0.00
2013-6-20,83.7,29.6,77.2,50.0,-46.4,-99.9,36,11,26,29.91,29.75,0,-635,0,0.00
2013-6-21,65.6,13.0,59.0,59.0,-68.4,-99.9,90,15,67,29.90,29.75,0,-797,0,0.00
2013-6-22,72.7,24.6,68.5,49.0,-49.6,-99.9,49,14,36,29.88,29.68,0,-652,0,0.00
2013-6-23,81.4,28.2,74.8,51.0,-47.2,-99.9,43,12,28,29.70,29.55,0,-641,0,0.00
2013-6-24,85.3,22.3,79.3,53.0,-59.5,-99.9,37,9,28,29.65,29.55,0,-729,0,0.00
2013-6-25,91.0,27.3,79.4,57.0,-50.3,-99.9,43,12,29,29.66,29.56,0,-680,0,0.00
2013-6-26,89.1,46.9,75.4,59.0,-12.7,-99.9,51,22,33,29.70,29.60,0,-442,0,0.00
2013-6-27,79.5,71.1,64.3,62.0,59.1,54.0,89,67,50,29.95,29.68,0,0,0,0.00
2013-6-28,80.4,70.0,60.9,60.0,56.3,54.0,83,63,42,30.02,29.96,0,0,0,0.00
2013-6-29,74.7,67.5,59.2,60.0,57.5,55.0,90,71,52,29.99,29.88,0,0,0,0.00
2013-6-30,83.8,70.1,56.9,59.0,55.3,48.0,83,62,39,29.88,29.61,0,0,0,0.00
2013-7-1,75.9,65.1,55.8,54.0,50.8,47.0,87,61,41,29.62,29.43,0,0,0,0.00
2013-7-2,69.8,59.0,49.2,52.0,46.3,42.0,91,65,38,29.72,29.52,0,0,0,0.00
2013-7-3,64.0,25.0,54.0,48.0,-40.4,-99.9,74,23,48,29.92,29.72,0,-590,0,0.00
2013-7-4,65.8,14.7,53.9,46.0,-65.2,-99.9,75,13,38,30.00,29.87,0,-757,0,0.00
2013-7-5,62.2,19.1,51.7,51.0,-52.6,-99.9,90,21,52,30.06,29.95,0,-677,0,0.04
2013-7-6,72.0,14.8,67.9,49.0,-69.0,-99.9,50,9,40,29.96,29.74,0,-789,0,0.00
2013-7-7,71.2,10.6,65.3,50.0,-76.9,-99.9,57,8,39,29.74,29.50,0,-843,0,0.00
2013-7-8,-200.0,0.0,200.0,-99.9,-99.9,-99.9,0,0,100,29.71,29.54,0,-999,0,0.00
2013-7-9,61.5,17.5,56.0,52.0,-55.8,-99.9,86,21,63,29.98,29.72,0,-705,0,0.00
2013-7-10,55.9,11.5,54.3,51.0,-68.7,-99.9,86,17,80,30.04,29.97,0,-791,0,0.00
2013-7-11,65.8,17.4,62.5,54.0,-58.9,-99.9,70,17,61,30.08,30.04,0,-728,0,0.00
2013-7-12,77.4,20.3,72.4,47.0,-61.4,-99.9,37,8,28,30.05,29.93,0,-729,0,0.00
2013-7-13,82.7,25.9,76.8,48.0,-52.8,-99.9,33,10,27,30.02,29.95,0,-676,0,0.00
2013-7-14,84.7,27.0,79.4,55.0,-52.3,-99.9,39,10,29,30.11,29.99,0,-673,0,0.00
2013-7-15,78.0,23.8,69.9,55.0,-50.5,-99.9,57,16,42,30.19,30.07,0,-678,0,0.00
2013-7-16,65.0,10.0,62.1,56.0,-75.4,-99.9,80,12,69,30.17,30.09,0,-841,0,0.00
2013-7-17,69.1,23.6,64.0,53.0,-45.8,-99.9,67,21,53,30.10,30.03,0,-642,0,0.00
2013-7-18,72.6,19.2,61.9,56.0,-57.1,-99.9,81,16,46,30.13,30.02,0,-718,0,0.01
2013-7-19,-200.0,0.0,200.0,-99.9,-99.9,-99.9,0,0,100,30.10,30.04,0,-999,0,0.00
2013-7-20,60.3,19.5,54.7,55.0,-48.3,-99.9,93,29,75,30.11,30.07,0,-662,0,0.00
2013-7-21,62.6,21.0,59.9,54.0,-47.7,-99.9,76,25,67,30.17,30.09,0,-656,0,0.00
2013-7-22,70.9,27.2,64.7,55.0,-39.1,-99.9,68,23,52,30.21,30.09,0,-602,0,0.00
2013-7-23,76.6,26.3,70.6,58.0,-44.4,-99.9,60,19,48,30.12,30.00,0,-644,0,0.00
2013-7-24,72.5,9.7,66.7,60.0,-78.0,-99.9,78,9,62,30.02,29.95,0,-861,0,0.00
2013-7-25,72.8,21.5,66.4,51.0,-54.3,-99.9,57,14,42,30.06,29.96,0,-692,0,0.00
2013-7-26,71.3,22.0,66.7,55.0,-51.8,-99.9,60,17,49,30.18,30.05,0,-684,0,0.00
2013-7-27,75.8,28.3,71.1,60.0,-39.9,-99.9,68,22,52,30.25,30.17,0,-619,0,0.00
2013-7-28,83.9,25.7,77.2,61.0,-50.8,-99.9,56,13,38,30.21,30.02,0,-688,0,0.00
2013-7-29,76.0,23.3,72.1,58.0,-51.3,-99.9,60,16,46,30.13,30.02,0,-686,0,0.00
2013-7-30,74.8,25.5,69.5,56.0,-45.8,-99.9,58,18,48,30.19,30.09,0,-647,0,0.00
2013-7-31,78.8,23.9,73.9,57.0,-51.9,-99.9,54,14,42,30.17,30.00,0,-688,0,0.00
2013-8-1,82.7,30.8,77.6,56.0,-41.4,-99.9,45,15,35,30.03,29.80,0,-617,0,0.00
2013-8-2,82.3,29.4,75.4,51.0,-46.8,-99.9,39,12,29,29.86,29.72,0,-630,0,0.00
2013-8-3,81.1,19.8,71.9,51.0,-62.0,-99.9,42,9,31,29.72,29.61,0,-744,0,0.00
2013-8-4,73.0,19.3,67.3,51.0,-59.3,-99.9,54,13,41,29.90,29.70,0,-726,0,0.00
2013-8-5,74.6,25.2,67.6,52.0,-48.0,-99.9,57,15,39,29.93,29.84,0,-650,0,0.00
2013-8-6,79.1,25.6,74.2,49.0,-51.0,-99.9,41,12,30,29.95,29.78,0,-666,0,0.00
2013-8-7,82.7,22.0,77.4,53.0,-59.0,-99.9,42,9,30,29.82,29.60,0,-726,0,0.00
2013-8-8,79.1,22.8,74.4,47.0,-56.8,-99.9,36,10,29,29.67,29.58,0,-703,0,0.00
2013-8-9,69.0,12.8,65.7,52.0,-71.8,-99.9,55,10,47,29.69,29.62,0,-810,0,0.00
2013-8-10,-200.0,0.0,200.0,-99.9,-99.9,-99.9,0,0,100,29.98,29.69,0,-999,0,0.00
2013-8-11,72.1,14.8,68.1,53.0,-67.8,-99.9,57,11,43,30.05,29.92,0,-787,0,0.00
2013-8-12,74.4,22.9,66.6,60.0,-49.3,-99.9,71,20,57,30.05,29.95,0,-680,0,0.00
2013-8-13,77.3,21.0,70.1,61.0,-54.9,-99.9,68,17,56,29.98,29.80,0,-718,0,0.00
2013-8-14,66.3,17.5,64.5,57.0,-58.6,-99.9,73,18,66,29.90,29.78,0,-733,0,0.00
2013-8-15,63.5,16.9,56.8,59.0,-55.9,-99.9,92,25,83,29.86,29.68,0,-718,0,0.00
2013-8-16,64.0,18.1,59.3,60.0,-54.7,-99.9,92,24,74,29.70,29.61,0,-712,0,0.00
2013-8-17,70.6,17.2,63.5,59.0,-60.8,-99.9,74,16,57,29.63,29.50,0,-747,0,0.00
2013-8-18,66.6,15.4,61.2,57.0,-63.0,-99.9,83,17,62,29.54,29.48,0,-760,0,0.00
2013-8-19,65.2,18.8,58.2,53.0,-54.5,-99.9,80,19,45,29.64,29.54,0,-694,0,0.00
2013-8-20,55.5,4.5,51.9,53.0,-87.2,-99.9,93,8,90,29.77,29.63,0,-915,0,0.00
2013-8-21,59.7,13.9,50.5,50.0,-64.1,-99.9,93,17,55,29.80,29.70,0,-755,0,0.00
2013-8-22,64.1,19.3,58.3,52.0,-53.0,-99.9,72,20,59,29.72,29.57,0,-685,0,0.00
2013-8-23,-200.0,0.0,200.0,-99.9,-99.9,-99.9,0,0,100,29.68,29.51,0,-999,0,0.00
2013-8-24,57.6,14.1,52.1,46.0,-63.6,-99.9,77,16,54,29.93,29.69,0,-744,0,0.00
2013-8-25,60.0,15.9,52.0,41.0,-61.4,-99.9,60,14,42,29.94,29.75,0,-720,0,0.00
2013-8-26,63.0,15.3,58.0,43.0,-64.8,-99.9,54,11,39,29.82,29.76,0,-747,0,0.00
2013-8-27,62.3,15.8,56.3,46.0,-62.1,-99.9,62,15,53,29.81,29.64,0,-738,0,0.00
2013-8-28,55.4,12.5,52.7,48.0,-66.3,-99.9,83,17,67,29.72,29.64,0,-768,0,0.00
2013-8-29,-200.0,0.0,200.0,-99.9,-99.9,-99.9,0,0,100,29.84,29.65,0,-999,0,0.00
2013-8-30,52.3,12.4,49.7,47.0,-64.9,-99.9,89,18,67,29.96,29.84,0,-755,0,0.00
2013-8-31,49.5,12.4,44.9,34.0,-65.8,-99.9,63,14,44,29.99,29.91,0,-739,0,0.00
2013-9-1,-200.0,0.0,200.0,-99.9,-99.9,-99.9,0,0,100,29.93,29.66,0,-999,0,0.00
2013-9-2,55.9,7.3,54.2,52.0,-80.0,-99.9,85,11,85,29.66,29.38,0,-867,0,0.00
2013-9-3,65.0,11.9,57.1,57.0,-70.3,-99.9,94,15,68,29.42,29.19,0,-808,0,0.00
2013-9-4,56.0,10.5,53.1,54.0,-70.9,-99.9,94,17,83,29.65,29.34,0,-808,0,0.00
2013-9-5,57.6,12.3,53.2,50.0,-67.1,-99.9,82,17,70,29.96,29.66,0,-778,0,0.00
2013-9-6,-200.0,0.0,200.0,-99.9,-99.9,-99.9,0,0,100,29.99,29.46,0,-999,0,0.00
2013-9-7,-200.0,0.0,200.0,-99.9,-99.9,-99.9,0,0,100,29.66,29.46,0,-999,0,0.00
2013-9-8,48.9,10.6,45.4,46.0,-67.1,-99.9,90,21,89,29.79,29.46,0,-771,0,0.01
2013-9-9,57.1,49.0,42.7,53.0,45.3,40.0,95,87,77,29.83,29.69,0,0,0,0.01
2013-9-10,65.2,53.1,44.3,50.0,45.6,42.0,93,77,50,29.71,29.66,0,0,0,0.00
2013-9-11,52.9,46.7,42.8,48.0,44.5,41.0,95,91,82,29.81,29.58,0,0,0,0.61
2013-9-12,57.6,47.3,38.9,50.0,44.1,37.0,95,89,75,29.96,29.82,0,0,0,0.00
2013-9-13,48.4,45.3,40.7,47.0,43.7,39.0,95,94,92,29.95,29.86,0,0,0,0.03
2013-9-14,51.0,45.4,35.2,46.0,41.4,33.0,95,86,68,30.09,29.95,0,0,0,0.09
2013-9-15,51.5,38.3,28.0,40.0,33.1,27.0,100,83,55,30.15,30.01,0,0,0,0.00
2013-9-16,52.4,39.7,29.8,34.0,29.6,27.0,89,69,46,30.01,29.71,0,0,0,0.00
2013-9-17,41.1,35.1,28.5,29.0,25.8,23.0,82,69,58,29.71,29.65,0,0,0,0.00
2013-9-18,33.5,31.2,28.7,31.0,29.0,27.0,94,92,82,29.76,29.68,0,0,0,0.05
2013-9-19,36.0,30.5,25.2,31.0,27.7,24.0,95,89,76,29.75,29.62,0,0,0,0.01
2013-9-20,33.8,28.1,22.1,29.0,25.3,21.0,95,89,76,29.61,29.23,0,0,0,0.00
2013-9-21,38.6,29.5,20.9,27.0,22.7,18.0,90,77,56,29.26,29.16,0,0,0,0.00
2013-9-22,31.0,28.7,26.7,29.0,25.7,22.0,94,88,77,29.54,29.25,0,0,0,0.01
2013-9-23,33.6,27.6,20.9,29.0,24.8,20.0,95,89,78,29.90,29.54,0,0,0,0.01
2013-9-24,36.4,31.4,27.4,27.0,25.5,23.0,92,79,66,30.05,29.78,0,0,0,0.01
2013-9-25,51.7,41.7,34.2,38.0,33.0,26.0,88,72,56,29.76,29.39,0,0,0,0.02
2013-9-26,44.1,38.4,33.3,40.0,36.3,32.0,94,92,82,29.65,29.34,0,0,0,0.02
2013-9-27,54.3,42.9,34.3,39.0,35.8,31.0,95,78,53,29.34,29.16,0,0,0,0.00
2013-9-28,44.9,38.5,33.2,39.0,35.1,31.0,95,88,74,29.35,29.27,0,0,0,0.03
2013-9-29,40.2,37.0,33.6,39.0,34.4,31.0,95,90,75,29.64,29.35,0,0,0,0.02
2013-9-30,38.7,35.9,32.9,31.0,29.5,28.0,84,77,69,29.85,29.64,0,0,0,0.00
2013-10-1,36.0,32.0,29.2,34.0,30.0,28.0,94,92,82,29.95,29.85,0,0,0,0.01
2013-10-2,44.9,36.5,31.2,37.0,32.7,30.0,94,86,68,29.95,29.86,0,0,0,0.00
2013-10-3,48.1,38.6,31.3,36.0,32.8,29.0,92,80,60,29.86,29.62,0,0,0,0.00
2013-10-4,37.4,33.1,28.3,34.0,30.8,27.0,95,91,86,29.86,29.61,0,0,0,0.00
2013-10-5,40.5,32.7,26.1,34.0,30.2,25.0,95,90,77,29.87,29.69,0,0,0,0.00
2013-10-6,41.4,35.2,31.2,34.0,31.4,30.0,94,86,72,29.72,29.66,0,0,0,0.00
2013-10-7,32.5,31.2,29.6,32.0,29.8,28.0,100,94,93,29.88,29.72,0,0,0,0.02
2013-10-8,47.2,40.6,27.7,36.0,31.9,26.0,95,72,63,29.75,28.98,0,0,0,0.00
2013-10-9,40.2,34.7,31.9,35.0,33.0,31.0,95,93,82,29.70,28.99,0,0,0,0.07
2013-10-10,35.2,30.7,26.2,31.0,28.8,25.0,95,92,84,29.73,29.65,0,0,0,0.00
2013-10-11,42.0,33.6,29.0,36.0,30.6,28.0,95,89,71,29.85,29.70,0,0,0,0.00
2013-10-12,50.6,41.0,30.2,37.0,32.9,29.0,94,74,56,29.83,29.68,0,0,0,0.01
2013-10-13,47.1,44.1,36.8,37.0,32.9,30.0,94,66,56,29.68,29.41,0,0,0,0.06
2013-10-14,40.6,36.0,31.0,38.0,34.3,29.0,95,93,90,29.93,29.57,0,0,0,0.03
2013-10-15,44.6,39.5,33.8,40.0,35.8,32.0,95,87,68,29.94,29.82,0,0,0,0.02
2013-10-16,50.6,46.6,41.8,43.0,39.6,38.0,90,77,67,30.07,29.89,0,0,0,0.01
2013-10-17,52.7,47.7,43.6,46.0,39.6,37.0,86,74,64,29.97,29.69,0,0,0,0.01
2013-10-18,52.9,45.3,39.8,38.0,35.2,33.0,81,68,50,29.70,29.57,0,0,0,0.00
2013-10-19,51.7,43.9,35.9,38.0,33.1,28.0,87,67,49,29.58,29.30,0,0,0,0.00
2013-10-20,45.4,39.0,32.9,35.0,32.2,30.0,90,77,62,29.89,29.58,0,0,0,0.00
2013-10-21,35.5,31.5,26.2,31.0,28.2,24.0,92,88,78,30.12,29.89,0,0,0,0.00
2013-10-22,34.2,28.5,23.6,29.0,24.7,21.0,92,86,74,30.20,30.11,0,0,0,0.00
2013-10-23,30.0,25.5,22.3,26.0,23.5,20.0,95,92,85,30.17,29.89,0,0,0,0.00
2013-10-24,33.8,26.1,17.3,27.0,22.3,16.0,95,86,65,29.99,29.71,0,0,0,0.00
2013-10-25,39.5,30.9,23.9,28.0,24.1,21.0,89,76,63,30.17,29.73,0,0,0,0.00
2013-10-26,30.8,24.4,20.5,27.0,22.4,19.0,94,92,83,30.53,30.18,0,0,0,0.00
2013-10-27,42.4,38.2,31.5,37.0,27.2,21.0,94,66,50,30.35,29.66,0,0,0,0.08
2013-10-28,50.2,40.8,36.5,41.0,37.8,35.0,94,89,70,29.65,29.02,0,0,0,0.02
2013-10-29,36.9,33.2,29.4,35.0,31.7,28.0,95,94,93,29.52,29.26,0,0,0,0.17
2013-10-30,29.6,26.3,23.6,28.0,25.0,22.0,95,94,94,29.48,29.21,0,0,0,0.00
2013-10-31,25.6,24.2,20.2,24.0,23.0,19.0,95,95,94,29.70,29.27,0,0,0,0.00
2013-11-1,25.0,23.8,22.7,24.0,22.6,22.0,95,95,94,30.11,29.70,0,0,0,0.00
2013-11-2,23.3,20.7,17.0,23.0,19.5,16.0,100,95,94,30.11,29.83,0,0,0,0.00
2013-11-3,30.0,24.9,19.0,28.0,23.3,18.0,100,94,88,29.84,29.62,0,0,0,0.00
2013-11-4,27.7,24.0,21.2,24.0,22.1,20.0,95,92,84,29.62,29.45,0,0,0,0.00
2013-11-5,22.7,19.1,16.2,22.0,17.5,15.0,100,93,91,30.23,29.53,0,0,0,0.00
2013-11-6,17.2,11.4,5.4,15.0,9.6,3.0,93,92,89,30.35,30.15,0,0,0,0.00
2013-11-7,14.5,10.6,5.3,8.0,5.7,1.0,89,80,74,30.14,29.93,0,0,0,0.00
2013-11-8,11.8,4.5,-1.6,10.0,2.0,-5.0,93,89,85,30.25,30.03,0,0,0,0.00
2013-11-9,21.0,18.1,11.6,20.0,16.6,10.0,95,94,91,30.16,29.76,0,0,0,0.00
2013-11-10,27.8,24.5,21.0,27.0,23.4,20.0,95,95,94,29.91,29.75,0,0,0,0.00
2013-11-11,22.0,12.8,4.6,21.0,11.4,3.0,95,94,91,30.35,29.92,0,0,0,0.00
2013-11-12,10.3,5.8,0.0,9.0,3.9,-2.0,93,91,89,30.36,30.09,0,0,0,0.00
2013-11-13,38.7,16.6,10.4,37.0,15.2,9.0,95,94,92,30.08,29.61,0,0,0,0.00
2013-11-14,39.8,34.4,30.9,36.0,32.1,30.0,95,91,83,29.71,29.60,0,0,0,0.54
2013-11-15,9.7,8.2,7.4,8.0,6.2,5.0,92,91,91,30.11,30.07,0,0,0,0.00
2013-11-16,13.0,8.0,-3.8,11.0,6.0,-7.0,93,91,87,30.39,30.10,0,0,0,0.00
2013-11-17,0.2,-2.5,-7.5,-3.0,-5.3,-11.0,88,88,85,30.49,30.38,0,0,0,0.00
2013-11-18,0.5,-0.8,-2.6,-2.0,-3.5,-6.0,99,88,87,30.38,30.23,0,0,0,0.00
2013-11-19,0.4,-5.3,-13.3,-2.0,-8.4,-17.0,89,86,83,30.23,30.16,0,0,0,0.00
2013-11-20,-12.9,-17.9,-22.1,-17.0,-21.9,-26.0,83,82,80,30.42,30.23,0,0,0,0.00
2013-11-21,4.8,-11.9,-20.7,3.0,-15.6,-25.0,90,84,80,30.38,29.62,0,0,0,0.00
2013-11-22,12.3,8.1,3.4,10.0,5.9,1.0,92,91,88,29.60,29.27,0,0,0,0.00
2013-11-23,5.0,2.4,0.5,3.0,-0.2,-2.0,90,89,88,29.81,29.46,0,0,0,0.00
2013-11-24,17.1,11.9,6.6,15.0,9.9,4.0,93,91,90,30.05,30.01,0,0,0,0.00
2013-11-25,10.9,5.0,1.2,9.0,2.9,-1.0,92,91,89,30.11,29.99,0,0,0,0.00
2013-11-26,7.2,3.1,-1.4,5.0,0.9,-4.0,91,90,88,30.11,30.00,0,0,0,0.00
2013-11-27,2.0,0.4,-0.4,1.0,-2.3,-3.0,100,89,88,30.10,29.91,0,0,0,0.00
2013-11-28,0.6,-3.1,-5.9,-2.0,-6.1,-9.0,89,87,86,30.10,29.90,0,0,0,0.00
2013-11-29,-4.5,-7.4,-10.3,-8.0,-10.8,-14.0,87,85,84,30.40,30.11,0,0,0,0.00
2013-11-30,-8.3,-11.2,-16.3,-12.0,-14.7,-20.0,85,84,82,30.64,30.40,0,0,0,0.00